Terminal Aerodrome Forecast
Issued by NWS

Home | Current Version | Previous Version | Text Only | Print | Product List | Glossary On
Versions: 1 2 3 4 5 6 7 8 9 10 11 12
000
FTUS45 KRIW 192300
TAFBPI
TAF
KBPI 192320Z 2000/2024 29006KT P6SM SCT060 BKN110
     FM200400 VRB04KT P6SM SCT050 OVC100
     FM201800 VRB04KT P6SM VCSH OVC040=

USA.gov is the U.S. government's official web portal to all federal, state and local government web resources and services.